Time;durP1;ratioP1;P1;durP2;ratioP2;P2;SDS_P1;SDS_P2;PMS_P1;PMS_P2;Temp;Humidity;BMP_temperature;BMP_pressure;BME280_temperature;BME280_humidity;BME280_pressure;Samples;Min_cycle;Max_cycle;Signal;HPM_P1;HPM_P2
2022/12/18 00:01:27;;;;;;;68.82;30.48;;;-1.60;99.90;;;;;;5072401;28;20070;-71
2022/12/18 00:03:54;;;;;;;78.38;29.50;;;-1.60;99.90;;;;;;5053814;28;20044;-71
2022/12/18 00:06:21;;;;;;;79.93;31.88;;;-1.60;99.90;;;;;;5071952;28;20572;-71
2022/12/18 00:08:47;;;;;;;71.40;31.48;;;-1.40;99.90;;;;;;5054326;28;20045;-71
2022/12/18 00:11:19;;;;;;;78.63;30.05;;;-1.40;99.90;;;;;;5072176;28;20107;-71
2022/12/18 00:13:45;;;;;;;68.75;27.95;;;-1.50;99.90;;;;;;5071729;28;20075;-71
2022/12/18 00:16:13;;;;;;;71.55;29.83;;;-1.40;99.90;;;;;;5071844;28;20052;-71
2022/12/18 00:18:39;;;;;;;74.13;28.30;;;-1.40;99.90;;;;;;5071315;28;20359;-71
2022/12/18 00:21:07;;;;;;;71.82;29.98;;;-1.40;99.90;;;;;;5071681;28;20044;-71
2022/12/18 00:23:34;;;;;;;76.80;29.23;;;-1.50;99.90;;;;;;5053780;28;20040;-71
2022/12/18 00:26:06;;;;;;;82.95;30.42;;;-1.40;99.90;;;;;;5053829;28;20049;-71
2022/12/18 00:28:33;;;;;;;82.72;32.42;;;-1.50;99.90;;;;;;5071949;28;20043;-71
2022/12/18 00:31:10;;;;;;;80.55;30.50;;;-1.40;99.90;;;;;;5053847;28;20047;-71
2022/12/18 00:33:37;;;;;;;78.55;31.80;;;-1.40;99.90;;;;;;5053491;28;20049;-71
2022/12/18 00:36:07;;;;;;;74.18;29.65;;;-1.50;99.90;;;;;;5071693;28;20486;-71
2022/12/18 00:38:33;;;;;;;78.28;32.38;;;-1.40;99.90;;;;;;5053905;28;20080;-71
2022/12/18 00:40:59;;;;;;;71.82;30.25;;;-1.50;99.90;;;;;;5053614;28;20044;-71
2022/12/18 00:43:25;;;;;;;73.00;29.58;;;-1.60;99.90;;;;;;5071311;28;20041;-71
2022/12/18 00:45:50;;;;;;;78.72;31.83;;;-1.40;99.90;;;;;;5071542;28;20698;-72
2022/12/18 00:48:16;;;;;;;61.10;26.33;;;-1.40;99.90;;;;;;5053539;28;20050;-71
2022/12/18 00:50:41;;;;;;;72.25;28.92;;;-1.40;99.90;;;;;;5071659;28;20407;-71
2022/12/18 00:53:11;;;;;;;69.68;31.38;;;-1.40;99.90;;;;;;5071323;28;20028;-71
2022/12/18 00:55:40;;;;;;;71.88;28.60;;;-1.50;99.90;;;;;;5071603;28;20402;-71
2022/12/18 00:58:05;;;;;;;73.45;29.55;;;-1.60;99.90;;;;;;5071554;28;20445;-71
2022/12/18 01:00:31;;;;;;;66.90;30.60;;;-1.50;99.90;;;;;;5071409;28;20036;-71
2022/12/18 01:02:56;;;;;;;67.60;28.50;;;-1.70;99.90;;;;;;5071107;28;20047;-71
2022/12/18 01:05:22;;;;;;;68.50;28.75;;;-1.80;99.90;;;;;;5071221;28;20127;-71
2022/12/18 01:07:47;;;;;;;62.55;26.80;;;-1.70;99.90;;;;;;5071475;28;20045;-71
2022/12/18 01:10:13;;;;;;;69.32;28.92;;;-1.80;99.90;;;;;;5053461;28;20048;-71
2022/12/18 01:12:39;;;;;;;65.78;29.38;;;-1.90;99.90;;;;;;5053015;28;20067;-71
2022/12/18 01:15:07;;;;;;;72.85;28.83;;;-1.80;99.90;;;;;;5071303;28;20034;-71
2022/12/18 01:17:33;;;;;;;67.80;25.95;;;-1.90;99.90;;;;;;5053619;28;20044;-71
2022/12/18 01:19:58;;;;;;;79.22;30.27;;;-2.00;99.90;;;;;;5071421;28;20082;-71
2022/12/18 01:22:24;;;;;;;66.90;29.95;;;-2.00;99.90;;;;;;5071199;28;20036;-71
2022/12/18 01:24:50;;;;;;;67.22;29.02;;;-2.00;99.90;;;;;;5053502;28;20120;-71
2022/12/18 01:27:15;;;;;;;71.28;29.17;;;-1.90;99.90;;;;;;5071232;28;20417;-71
2022/12/18 01:29:41;;;;;;;69.97;30.17;;;-1.90;99.90;;;;;;5071568;28;20559;-71
2022/12/18 01:32:07;;;;;;;68.22;29.13;;;-2.00;99.90;;;;;;5075008;28;20102;-71
2022/12/18 01:34:32;;;;;;;72.68;29.75;;;-2.00;99.90;;;;;;5074836;28;20042;-71
2022/12/18 01:36:58;;;;;;;74.15;29.50;;;-1.90;99.90;;;;;;5075114;28;20045;-71
2022/12/18 01:39:23;;;;;;;89.18;33.08;;;-2.00;99.90;;;;;;5074920;28;20040;-71
2022/12/18 01:42:10;;;;;;;83.20;30.98;;;-1.80;99.90;;;;;;5074811;28;20039;-71
2022/12/18 01:44:55;;;;;;;75.60;30.08;;;-2.00;99.90;;;;;;5074259;28;20040;-71
2022/12/18 01:47:25;;;;;;;82.78;29.00;;;-2.00;99.90;;;;;;5074861;28;20083;-71
2022/12/18 01:49:52;;;;;;;77.57;30.15;;;-1.90;99.90;;;;;;5074740;28;20032;-71
2022/12/18 01:52:19;;;;;;;74.72;30.00;;;-2.10;99.90;;;;;;5074379;28;20051;-72
2022/12/18 01:54:46;;;;;;;75.28;29.00;;;-2.20;99.90;;;;;;5074479;28;20041;-72
2022/12/18 01:57:12;;;;;;;79.68;31.98;;;-2.00;99.90;;;;;;5074780;28;20040;-71
2022/12/18 01:59:38;;;;;;;71.40;30.88;;;-2.20;99.90;;;;;;5056648;28;20127;-71
2022/12/18 02:02:04;;;;;;;77.93;31.60;;;-2.10;99.90;;;;;;5056698;28;20047;-71
2022/12/18 02:04:30;;;;;;;75.20;29.77;;;-2.10;99.90;;;;;;5074028;28;20045;-71
2022/12/18 02:07:16;;;;;;;85.43;32.38;;;-2.20;99.90;;;;;;5074338;28;20040;-71
2022/12/18 02:09:54;;;;;;;79.47;33.03;;;-2.20;99.90;;;;;;5074592;28;20048;-71
2022/12/18 02:12:23;;;;;;;76.50;29.95;;;-2.20;99.90;;;;;;5054295;28;20041;-71
2022/12/18 02:15:17;;;;;;;91.60;32.83;;;-2.20;99.90;;;;;;5053040;28;20043;-71
2022/12/18 02:17:57;;;;;;;79.97;30.00;;;-2.20;99.90;;;;;;5051186;28;20047;-71
2022/12/18 02:20:37;;;;;;;76.72;30.63;;;-2.10;99.90;;;;;;5040934;28;20041;-71
2022/12/18 02:23:13;;;;;;;78.32;33.53;;;-2.10;99.90;;;;;;5073537;28;20421;-71
2022/12/18 02:26:02;;;;;;;93.07;35.92;;;-2.10;99.90;;;;;;5059513;28;20128;-71
2022/12/18 02:28:32;;;;;;;73.20;29.02;;;-2.10;99.90;;;;;;5054276;28;20076;-72
2022/12/18 02:31:01;;;;;;;78.70;31.90;;;-2.20;99.90;;;;;;5054139;28;20090;-72
2022/12/18 02:33:29;;;;;;;70.85;30.70;;;-2.20;99.90;;;;;;5053410;28;20037;-71
2022/12/18 02:35:57;;;;;;;75.45;31.50;;;-2.30;99.90;;;;;;5053860;28;20076;-71
2022/12/18 02:38:24;;;;;;;76.28;32.47;;;-2.30;99.90;;;;;;5053725;28;20041;-71
2022/12/18 02:40:52;;;;;;;71.78;30.27;;;-2.30;99.90;;;;;;5053323;28;20051;-72
2022/12/18 02:43:18;;;;;;;82.65;34.15;;;-2.40;99.90;;;;;;5053438;28;20115;-73
2022/12/18 02:45:54;;;;;;;74.38;30.38;;;-2.30;99.90;;;;;;5035879;28;20128;-71
2022/12/18 02:48:28;;;;;;;80.75;33.53;;;-2.40;99.90;;;;;;5035888;28;20657;-71
2022/12/18 02:51:18;;;;;;;77.85;31.80;;;-2.50;99.90;;;;;;5035705;28;20077;-71
2022/12/18 02:53:50;;;;;;;76.45;29.60;;;-2.50;99.90;;;;;;5035330;28;20515;-71
2022/12/18 02:56:27;;;;;;;74.63;31.42;;;-2.50;99.90;;;;;;5053607;28;20040;-71
2022/12/18 02:59:01;;;;;;;82.25;30.83;;;-2.50;99.90;;;;;;5053497;28;20055;-71
2022/12/18 03:01:50;;;;;;;79.55;31.77;;;-2.60;99.90;;;;;;5035480;28;20083;-71
2022/12/18 03:04:18;;;;;;;82.47;31.70;;;-2.60;99.90;;;;;;5035333;28;20120;-71
2022/12/18 03:06:48;;;;;;;78.85;32.75;;;-2.60;99.90;;;;;;5035497;28;20041;-71
2022/12/18 03:09:36;;;;;;;71.82;33.88;;;-2.60;99.90;;;;;;5053316;28;20037;-71
2022/12/18 03:12:25;;;;;;;79.57;30.25;;;-2.60;99.90;;;;;;5053319;28;20028;-71
2022/12/18 03:15:03;;;;;;;83.50;31.58;;;-2.80;99.90;;;;;;5053315;28;20063;-71
2022/12/18 03:17:31;;;;;;;79.47;32.88;;;-2.80;99.90;;;;;;5053093;28;20104;-71
2022/12/18 03:20:01;;;;;;;79.03;31.15;;;-2.80;99.90;;;;;;5053024;28;20075;-71
2022/12/18 03:22:30;;;;;;;85.53;33.35;;;-2.80;99.90;;;;;;5052782;28;20092;-71
2022/12/18 03:24:57;;;;;;;79.22;32.33;;;-2.70;99.90;;;;;;5052980;28;20119;-71
2022/12/18 03:27:25;;;;;;;81.65;32.75;;;-2.70;99.90;;;;;;5052897;28;20391;-71
2022/12/18 03:30:07;;;;;;;82.53;32.13;;;-2.80;99.90;;;;;;5052923;28;20037;-71
2022/12/18 03:32:54;;;;;;;80.55;32.88;;;-2.80;99.90;;;;;;5052253;28;20090;-71
2022/12/18 03:35:29;;;;;;;89.32;35.30;;;-2.80;99.90;;;;;;5035099;28;20055;-71
2022/12/18 03:37:54;;;;;;;83.30;34.80;;;-2.90;99.90;;;;;;5034770;28;20037;-71
2022/12/18 03:40:27;;;;;;;84.47;34.53;;;-2.90;99.90;;;;;;5052639;28;20033;-71
2022/12/18 03:43:02;;;;;;;86.03;37.05;;;-2.90;99.90;;;;;;5052188;28;20040;-71
2022/12/18 03:45:36;;;;;;;82.03;33.40;;;-2.90;99.90;;;;;;5052655;28;20102;-71
2022/12/18 03:48:20;;;;;;;83.10;33.90;;;-2.90;99.90;;;;;;5052536;28;20041;-71
2022/12/18 03:50:49;;;;;;;81.90;34.38;;;-2.90;99.90;;;;;;5052555;28;20049;-71
2022/12/18 03:53:46;;;;;;;89.22;35.47;;;-3.00;99.90;;;;;;5051218;28;20041;-71
2022/12/18 03:56:15;;;;;;;90.78;34.08;;;-3.00;99.90;;;;;;5050984;28;20056;-71
2022/12/18 03:58:43;;;;;;;83.53;33.90;;;-3.10;99.90;;;;;;5052339;28;20051;-71
2022/12/18 04:01:12;;;;;;;88.00;33.17;;;-3.00;99.90;;;;;;5017762;28;20124;-71
2022/12/18 04:03:38;;;;;;;89.50;34.90;;;-3.20;99.90;;;;;;5034032;28;20045;-71
2022/12/18 04:06:06;;;;;;;83.97;33.30;;;-3.10;99.90;;;;;;5034191;28;20051;-71
2022/12/18 04:08:33;;;;;;;75.82;32.78;;;-3.20;99.90;;;;;;5034519;28;20657;-71
2022/12/18 04:10:59;;;;;;;86.05;31.75;;;-3.20;99.90;;;;;;5034488;28;20441;-71
2022/12/18 04:13:28;;;;;;;75.60;30.77;;;-3.20;99.90;;;;;;5034005;28;20047;-71
2022/12/18 04:15:54;;;;;;;81.80;33.88;;;-3.20;99.90;;;;;;5017710;28;20049;-71
2022/12/18 04:18:19;;;;;;;82.95;32.58;;;-3.20;99.90;;;;;;5034197;28;20410;-71
2022/12/18 04:20:45;;;;;;;82.25;32.60;;;-3.20;99.90;;;;;;5034047;28;20574;-71
2022/12/18 04:23:11;;;;;;;80.60;32.08;;;-3.30;99.90;;;;;;5033864;28;20384;-71
2022/12/18 04:25:37;;;;;;;85.65;31.38;;;-3.20;99.90;;;;;;5051804;28;20041;-71
2022/12/18 04:28:02;;;;;;;91.80;32.60;;;-3.20;99.90;;;;;;5051907;28;20089;-71
2022/12/18 04:30:28;;;;;;;82.43;33.60;;;-3.30;99.90;;;;;;5033763;28;20033;-71
2022/12/18 04:32:53;;;;;;;82.15;33.70;;;-3.30;99.90;;;;;;5033626;28;20400;-72
2022/12/18 04:35:19;;;;;;;82.25;32.80;;;-3.40;99.90;;;;;;5033749;28;20041;-71
2022/12/18 04:37:44;;;;;;;78.47;30.30;;;-3.30;99.90;;;;;;5017380;28;20037;-71
2022/12/18 04:40:11;;;;;;;76.13;31.95;;;-3.40;99.90;;;;;;5033775;28;20063;-71
2022/12/18 04:42:36;;;;;;;78.85;29.42;;;-3.50;99.90;;;;;;5051212;28;20056;-71
2022/12/18 04:45:02;;;;;;;69.80;30.15;;;-3.40;99.90;;;;;;5051600;28;20037;-71
2022/12/18 04:47:27;;;;;;;68.57;30.88;;;-3.40;99.90;;;;;;5033511;28;20055;-71
2022/12/18 04:49:53;;;;;;;75.03;30.30;;;-3.50;99.90;;;;;;5033610;28;20041;-72
2022/12/18 04:52:19;;;;;;;76.13;29.63;;;-3.40;99.90;;;;;;5016807;28;20106;-71
2022/12/18 04:54:44;;;;;;;70.60;29.80;;;-3.40;99.90;;;;;;5051363;28;20043;-71
2022/12/18 04:57:10;;;;;;;82.80;29.30;;;-3.40;99.90;;;;;;5051603;28;20044;-71
2022/12/18 04:59:35;;;;;;;76.47;30.38;;;-3.50;99.90;;;;;;5051441;28;20529;-71
2022/12/18 05:02:01;;;;;;;69.57;31.45;;;-3.50;99.90;;;;;;5033471;28;20498;-72
2022/12/18 05:04:26;;;;;;;66.45;29.70;;;-3.60;99.90;;;;;;5052775;28;20067;-71
2022/12/18 05:06:52;;;;;;;62.45;28.08;;;-3.60;99.90;;;;;;5055685;28;20033;-72
2022/12/18 05:09:17;;;;;;;72.22;29.45;;;-3.60;99.90;;;;;;5056158;28;20048;-72
2022/12/18 05:11:43;;;;;;;68.03;28.40;;;-3.60;99.90;;;;;;5056098;28;20047;-72
2022/12/18 05:14:08;;;;;;;74.80;30.10;;;-3.70;99.90;;;;;;5055367;28;20041;-72
2022/12/18 05:16:34;;;;;;;62.10;29.23;;;-3.70;99.90;;;;;;5038023;28;20040;-72
2022/12/18 05:18:59;;;;;;;73.35;29.50;;;-3.60;99.90;;;;;;5037464;28;20046;-72
2022/12/18 05:21:25;;;;;;;56.38;30.63;;;-3.70;99.90;;;;;;5037250;28;20100;-72
2022/12/18 05:23:50;;;;;;;69.85;27.85;;;-3.70;99.90;;;;;;5037034;28;20502;-71
2022/12/18 05:26:17;;;;;;;53.58;23.73;;;-3.70;99.90;;;;;;5037344;28;20064;-71
2022/12/18 05:28:43;;;;;;;62.35;24.17;;;-3.70;99.90;;;;;;5037443;28;20033;-72
2022/12/18 05:31:09;;;;;;;56.72;25.67;;;-3.70;99.90;;;;;;5037380;28;20472;-71
2022/12/18 05:33:35;;;;;;;58.83;24.90;;;-3.70;99.90;;;;;;5036834;28;20088;-71
2022/12/18 05:36:06;;;;;;;52.35;24.38;;;-3.70;99.90;;;;;;5054932;28;20037;-71
2022/12/18 05:38:33;;;;;;;54.15;24.92;;;-3.60;99.90;;;;;;5037288;28;20052;-71
2022/12/18 05:40:59;;;;;;;47.58;22.67;;;-3.70;99.90;;;;;;5037096;28;20049;-71
2022/12/18 05:43:26;;;;;;;57.17;27.13;;;-3.70;99.90;;;;;;5054642;28;20037;-71
2022/12/18 05:45:52;;;;;;;51.20;23.02;;;-3.80;99.90;;;;;;5037152;28;20033;-72
2022/12/18 05:48:19;;;;;;;58.60;25.65;;;-3.70;99.90;;;;;;5036716;28;20037;-71
2022/12/18 05:50:46;;;;;;;48.95;24.35;;;-3.70;99.90;;;;;;5054882;28;20064;-71
2022/12/18 05:53:13;;;;;;;52.90;23.75;;;-3.70;99.90;;;;;;5054414;28;20384;-71
2022/12/18 05:55:40;;;;;;;58.33;24.33;;;-3.80;99.90;;;;;;5054705;28;20040;-71
2022/12/18 05:58:07;;;;;;;46.35;22.80;;;-3.70;99.90;;;;;;5054552;28;20044;-71
2022/12/18 06:00:35;;;;;;;51.88;23.33;;;-3.80;99.90;;;;;;5054378;28;20047;-71
2022/12/18 06:03:01;;;;;;;46.22;22.83;;;-3.80;99.90;;;;;;5036256;28;20517;-71
2022/12/18 06:05:27;;;;;;;46.15;21.98;;;-3.80;99.90;;;;;;5054515;28;20045;-71
2022/12/18 06:07:53;;;;;;;46.08;21.58;;;-3.80;99.90;;;;;;5054517;28;20079;-71
2022/12/18 06:10:18;;;;;;;56.22;24.83;;;-3.90;99.90;;;;;;5036505;28;20494;-71
2022/12/18 06:12:44;;;;;;;45.13;20.33;;;-3.80;99.90;;;;;;5054098;28;20029;-71
2022/12/18 06:15:10;;;;;;;45.67;22.92;;;-3.90;99.90;;;;;;5035684;28;20033;-71
2022/12/18 06:17:36;;;;;;;43.38;21.00;;;-3.90;99.90;;;;;;5035987;28;20052;-71
2022/12/18 06:20:02;;;;;;;44.67;20.20;;;-3.90;99.90;;;;;;5036305;28;20120;-71
2022/12/18 06:22:30;;;;;;;41.53;19.17;;;-3.90;99.90;;;;;;5036294;28;20464;-71
2022/12/18 06:24:55;;;;;;;43.85;20.65;;;-3.90;99.90;;;;;;5054210;28;20045;-71
2022/12/18 06:27:21;;;;;;;47.50;22.17;;;-3.90;99.90;;;;;;5036103;28;20048;-71
2022/12/18 06:29:47;;;;;;;47.15;19.95;;;-3.90;99.90;;;;;;5053866;28;20043;-71
2022/12/18 06:32:13;;;;;;;43.63;21.52;;;-4.00;99.90;;;;;;5035862;28;20548;-71
2022/12/18 06:34:38;;;;;;;51.90;22.38;;;-3.90;99.90;;;;;;5035900;28;20037;-71
2022/12/18 06:37:04;;;;;;;46.17;20.45;;;-4.00;99.90;;;;;;5054004;28;20041;-71
2022/12/18 06:39:29;;;;;;;49.83;21.90;;;-4.00;99.90;;;;;;5053871;28;20063;-71
2022/12/18 06:41:55;;;;;;;41.80;19.85;;;-4.00;99.90;;;;;;5053696;28;20072;-71
2022/12/18 06:44:21;;;;;;;43.45;22.23;;;-4.10;99.90;;;;;;5053330;28;20114;-71
2022/12/18 06:46:46;;;;;;;45.83;21.10;;;-4.10;99.90;;;;;;5053612;28;20033;-71
2022/12/18 06:49:12;;;;;;;42.38;19.48;;;-4.20;99.90;;;;;;5035729;28;20045;-71
2022/12/18 06:51:38;;;;;;;45.10;21.05;;;-4.10;99.90;;;;;;5053648;28;20384;-71
2022/12/18 06:54:03;;;;;;;42.30;19.67;;;-4.20;99.90;;;;;;5053346;28;20041;-71
2022/12/18 06:56:29;;;;;;;44.67;20.45;;;-4.20;99.90;;;;;;5035580;28;20041;-71
2022/12/18 06:58:54;;;;;;;43.17;19.70;;;-4.20;99.90;;;;;;5053339;28;20036;-71
2022/12/18 07:01:21;;;;;;;45.75;23.10;;;-4.30;99.90;;;;;;5053550;28;20033;-71
2022/12/18 07:03:52;;;;;;;44.50;22.00;;;-4.30;99.90;;;;;;5035167;28;20179;-71
2022/12/18 07:06:19;;;;;;;40.17;21.02;;;-4.30;99.90;;;;;;5053379;28;20037;-71
2022/12/18 07:08:46;;;;;;;44.80;20.65;;;-4.40;99.90;;;;;;5053329;28;20052;-71
2022/12/18 07:11:12;;;;;;;43.05;20.13;;;-4.40;99.90;;;;;;5053369;28;20037;-71
2022/12/18 07:13:38;;;;;;;46.40;20.55;;;-4.50;99.90;;;;;;5052778;28;20056;-71
2022/12/18 07:16:13;;;;;;;40.45;21.35;;;-4.60;99.90;;;;;;5035287;28;20044;-70
2022/12/18 07:18:38;;;;;;;44.78;19.75;;;-4.60;99.90;;;;;;5053446;28;20388;-72
2022/12/18 07:21:10;;;;;;;45.35;21.45;;;-4.60;99.90;;;;;;5053054;28;20052;-71
2022/12/18 07:23:35;;;;;;;44.92;20.90;;;-4.50;99.90;;;;;;5052604;28;20040;-72
2022/12/18 07:26:08;;;;;;;45.38;20.52;;;-4.50;99.90;;;;;;5034876;28;20138;-71
2022/12/18 07:28:35;;;;;;;41.63;19.80;;;-4.60;99.90;;;;;;5052879;28;20041;-71
2022/12/18 07:31:09;;;;;;;45.88;21.67;;;-4.50;99.90;;;;;;5052752;28;20061;-71
2022/12/18 07:33:34;;;;;;;42.97;19.27;;;-4.50;99.90;;;;;;5052162;28;20044;-72
2022/12/18 07:36:02;;;;;;;40.13;18.70;;;-4.60;99.90;;;;;;5052690;28;20033;-71
2022/12/18 07:38:28;;;;;;;39.42;18.77;;;-4.50;99.90;;;;;;5052517;28;20045;-71
2022/12/18 07:40:53;;;;;;;41.55;21.15;;;-4.60;99.90;;;;;;5052767;28;20036;-71
2022/12/18 07:43:19;;;;;;;40.92;18.98;;;-4.50;99.90;;;;;;5052414;28;20099;-71
2022/12/18 07:45:44;;;;;;;34.58;18.35;;;-4.50;99.90;;;;;;5052646;28;20126;-73
2022/12/18 07:48:10;;;;;;;37.22;18.85;;;-4.50;99.90;;;;;;5052494;28;20036;-71
2022/12/18 07:50:37;;;;;;;40.30;18.52;;;-4.50;99.90;;;;;;5052453;28;20563;-71
2022/12/18 07:53:04;;;;;;;42.80;20.55;;;-4.50;99.90;;;;;;5051851;28;20627;-71
2022/12/18 07:55:31;;;;;;;41.53;19.95;;;-4.40;99.90;;;;;;5034487;28;20140;-71
2022/12/18 07:57:57;;;;;;;37.60;18.77;;;-4.50;99.90;;;;;;5052283;28;20099;-71
2022/12/18 08:00:22;;;;;;;37.72;18.45;;;-4.40;99.90;;;;;;5052327;28;20044;-70
2022/12/18 08:02:48;;;;;;;37.45;19.15;;;-4.30;99.90;;;;;;5034090;28;20498;-70
2022/12/18 08:05:13;;;;;;;37.97;20.05;;;-4.30;99.90;;;;;;5052183;28;20036;-70
2022/12/18 08:07:39;;;;;;;38.20;20.10;;;-4.20;99.90;;;;;;5051770;28;20048;-70
2022/12/18 08:10:06;;;;;;;41.33;20.08;;;-4.20;99.90;;;;;;5072783;28;20168;-70
2022/12/18 08:12:32;;;;;;;40.42;21.00;;;-4.10;99.90;;;;;;5091557;28;20494;-70
2022/12/18 08:14:57;;;;;;;39.67;18.73;;;-4.20;99.90;;;;;;5092304;28;20040;-71
2022/12/18 08:17:23;;;;;;;41.17;20.98;;;-4.10;99.90;;;;;;5092191;28;20044;-72
2022/12/18 08:19:48;;;;;;;39.72;20.33;;;-4.10;99.90;;;;;;5092139;28;20036;-71
2022/12/18 08:22:14;;;;;;;37.58;20.13;;;-4.10;99.90;;;;;;5091745;28;20063;-71
2022/12/18 08:24:39;;;;;;;40.63;18.88;;;-4.10;99.90;;;;;;5091988;28;20402;-71
2022/12/18 08:27:05;;;;;;;30.38;17.35;;;-4.10;99.90;;;;;;5091943;28;20136;-70
2022/12/18 08:29:31;;;;;;;37.35;18.83;;;-4.00;99.90;;;;;;5092005;28;20073;-70
2022/12/18 08:31:57;;;;;;;34.53;17.38;;;-4.10;99.90;;;;;;5091730;28;20548;-70
2022/12/18 08:34:23;;;;;;;37.95;19.38;;;-4.10;99.90;;;;;;5073773;28;20067;-70
2022/12/18 08:36:48;;;;;;;37.65;18.13;;;-4.00;99.90;;;;;;5073641;28;20044;-70
2022/12/18 08:39:14;;;;;;;32.60;18.33;;;-4.10;99.90;;;;;;5073147;28;20040;-70
2022/12/18 08:41:39;;;;;;;38.10;18.27;;;-3.90;99.90;;;;;;5073655;28;20036;-71
2022/12/18 08:47:05;;;;;;;35.30;18.15;;;-4.00;99.90;;;;;;5040190;28;20060;-71
2022/12/18 08:49:32;;;;;;;35.40;18.70;;;-3.90;99.90;;;;;;5091552;28;20444;-70
2022/12/18 08:51:57;;;;;;;33.33;17.58;;;-3.90;99.90;;;;;;5073396;28;20055;-70
2022/12/18 08:54:24;;;;;;;33.83;16.73;;;-3.90;99.90;;;;;;5091455;28;20401;-70
2022/12/18 08:56:49;;;;;;;31.50;16.20;;;-4.00;99.90;;;;;;5073540;28;20040;-70
2022/12/18 08:59:16;;;;;;;36.05;16.33;;;-4.00;99.90;;;;;;5091579;28;20036;-70
2022/12/18 09:01:41;;;;;;;30.25;17.48;;;-4.00;99.90;;;;;;5091396;28;20043;-70
2022/12/18 09:04:08;;;;;;;31.20;15.85;;;-4.00;99.90;;;;;;5074973;28;20447;-70
2022/12/18 09:06:34;;;;;;;33.38;18.05;;;-3.90;99.90;;;;;;5070924;28;20435;-69
2022/12/18 09:08:59;;;;;;;30.60;15.48;;;-3.80;99.90;;;;;;5070959;28;20155;-68
2022/12/18 09:11:27;;;;;;;31.70;15.85;;;-3.70;99.90;;;;;;5078189;28;20533;-68
2022/12/18 09:13:53;;;;;;;28.08;15.63;;;-3.70;99.90;;;;;;5070799;28;20107;-69
2022/12/18 09:16:19;;;;;;;33.38;16.83;;;-3.60;99.90;;;;;;5070760;28;20032;-68
2022/12/18 09:18:46;;;;;;;33.42;15.18;;;-3.60;99.90;;;;;;5071045;28;20040;-68
2022/12/18 09:21:14;;;;;;;28.13;15.30;;;-3.60;99.90;;;;;;5070768;28;20044;-69
2022/12/18 09:23:40;;;;;;;33.95;16.95;;;-3.60;99.90;;;;;;5070629;28;20525;-69
2022/12/18 09:26:06;;;;;;;28.73;15.80;;;-3.50;99.90;;;;;;5070891;28;20044;-70
2022/12/18 09:28:32;;;;;;;27.73;15.82;;;-3.60;99.90;;;;;;5070821;28;20032;-70
2022/12/18 09:30:57;;;;;;;28.98;15.77;;;-3.60;99.90;;;;;;5070815;28;20425;-69
2022/12/18 09:33:23;;;;;;;28.50;14.32;;;-3.50;99.90;;;;;;5070144;28;20102;-69
2022/12/18 09:35:48;;;;;;;27.25;15.23;;;-3.50;99.90;;;;;;5071134;28;20490;-69
2022/12/18 09:38:17;;;;;;;29.83;14.80;;;-3.50;99.90;;;;;;5052688;28;20094;-70
2022/12/18 09:40:52;;;;;;;24.23;14.13;;;-3.50;99.90;;;;;;5071285;28;20083;-69
2022/12/18 09:43:27;;;;;;;26.42;14.82;;;-3.40;99.90;;;;;;5070468;28;20517;-69
2022/12/18 09:45:59;;;;;;;23.35;13.95;;;-3.20;99.90;;;;;;5058574;28;20041;-70
2022/12/18 09:48:27;;;;;;;22.52;11.55;;;-3.20;99.90;;;;;;5070876;28;20571;-69
2022/12/18 09:50:58;;;;;;;22.88;11.73;;;-3.20;99.90;;;;;;5071478;28;20041;-69
2022/12/18 09:53:30;;;;;;;24.23;13.38;;;-3.00;99.90;;;;;;5074030;28;20040;-69
2022/12/18 09:55:56;;;;;;;30.77;13.80;;;-3.00;99.90;;;;;;5074100;28;20033;-69
2022/12/18 09:58:28;;;;;;;22.92;12.30;;;-3.00;99.90;;;;;;5074531;28;20044;-70
2022/12/18 10:00:54;;;;;;;22.30;11.40;;;-2.90;99.90;;;;;;5074188;28;20068;-69
2022/12/18 10:03:21;;;;;;;17.58;10.88;;;-2.90;99.90;;;;;;5073835;28;20406;-69
2022/12/18 10:05:56;;;;;;;18.10;10.73;;;-2.90;99.90;;;;;;5073941;28;20038;-69
2022/12/18 10:08:46;;;;;;;17.80;10.70;;;-2.80;99.90;;;;;;5073960;28;20048;-69
2022/12/18 10:11:48;;;;;;;20.27;11.07;;;-2.70;99.90;;;;;;5074038;28;20048;-69
2022/12/18 10:14:47;;;;;;;19.95;11.95;;;-2.80;99.90;;;;;;5083015;28;20040;-69
2022/12/18 10:17:28;;;;;;;16.67;11.43;;;-2.60;99.90;;;;;;5062577;28;20040;-69
2022/12/18 10:20:10;;;;;;;18.55;10.30;;;-2.60;99.90;;;;;;5073870;28;20040;-68
2022/12/18 10:22:41;;;;;;;18.17;11.15;;;-2.50;99.90;;;;;;5073564;28;20132;-69
2022/12/18 10:25:21;;;;;;;17.48;10.65;;;-2.50;99.90;;;;;;5073640;28;20044;-69
2022/12/18 10:27:48;;;;;;;14.70;9.23;;;-2.40;99.90;;;;;;5074424;28;20116;-69
2022/12/18 10:30:16;;;;;;;14.85;9.30;;;-2.50;99.90;;;;;;5055885;28;20431;-68
2022/12/18 10:32:42;;;;;;;15.32;9.45;;;-2.30;99.90;;;;;;5055512;28;20504;-70
2022/12/18 10:35:16;;;;;;;16.02;9.48;;;-2.40;99.90;;;;;;5073556;28;20029;-69
2022/12/18 10:37:59;;;;;;;16.75;9.88;;;-2.20;99.90;;;;;;5073497;28;20101;-69
2022/12/18 10:40:25;;;;;;;17.15;9.93;;;-2.20;99.90;;;;;;5073268;28;20498;-69
2022/12/18 10:43:14;;;;;;;14.45;9.02;;;-2.30;99.90;;;;;;5055098;28;20047;-69
2022/12/18 10:45:40;;;;;;;17.17;10.55;;;-2.20;99.90;;;;;;5073313;28;20036;-68
2022/12/18 10:48:19;;;;;;;16.27;10.35;;;-2.20;99.90;;;;;;5053691;28;20051;-69
2022/12/18 10:50:49;;;;;;;16.55;9.80;;;-2.20;99.90;;;;;;5038323;28;20041;-70
2022/12/18 10:53:27;;;;;;;18.67;9.75;;;-2.30;99.90;;;;;;5072918;28;20093;-69
2022/12/18 10:56:00;;;;;;;18.30;10.05;;;-2.20;99.90;;;;;;5073179;28;20051;-69
2022/12/18 10:58:28;;;;;;;17.38;9.85;;;-2.10;99.90;;;;;;5053478;28;20528;-68
2022/12/18 11:01:08;;;;;;;17.17;10.20;;;-2.10;99.90;;;;;;5073171;28;20072;-69
2022/12/18 11:03:40;;;;;;;16.77;8.93;;;-2.10;99.90;;;;;;5072586;28;20048;-69
2022/12/18 11:06:15;;;;;;;14.88;8.80;;;-2.00;99.90;;;;;;5077646;28;20040;-69
2022/12/18 11:08:43;;;;;;;20.63;9.50;;;-2.10;99.90;;;;;;5046969;28;20045;-70
2022/12/18 11:11:22;;;;;;;13.57;8.05;;;-2.00;99.90;;;;;;5054574;28;20105;-69
2022/12/18 11:13:58;;;;;;;11.60;7.57;;;-2.00;99.90;;;;;;5072942;28;20123;-69
2022/12/18 11:16:24;;;;;;;16.85;8.93;;;-1.90;99.90;;;;;;5055194;28;20040;-70
2022/12/18 11:18:50;;;;;;;12.88;8.32;;;-1.90;99.90;;;;;;5055297;28;20531;-70
2022/12/18 11:21:16;;;;;;;16.83;8.15;;;-1.80;99.90;;;;;;5054651;28;20554;-69
2022/12/18 11:23:51;;;;;;;11.00;7.30;;;-1.80;99.90;;;;;;5054332;28;20068;-69
2022/12/18 11:26:17;;;;;;;14.82;8.48;;;-1.70;99.90;;;;;;5072370;28;20045;-70
2022/12/18 11:29:07;;;;;;;13.55;7.45;;;-1.70;99.90;;;;;;5054773;28;20071;-69
2022/12/18 11:31:32;;;;;;;11.90;7.15;;;-1.60;99.90;;;;;;5054232;28;20068;-70
2022/12/18 11:34:04;;;;;;;13.07;7.20;;;-1.60;99.90;;;;;;5054412;28;20458;-70
2022/12/18 11:36:35;;;;;;;11.95;6.93;;;-1.60;99.90;;;;;;5068265;28;20201;-70
2022/12/18 11:39:10;;;;;;;12.57;8.00;;;-1.60;99.90;;;;;;5072488;28;20053;-70
2022/12/18 11:45:01;;;;;;;10.10;6.60;;;-1.40;99.90;;;;;;5071979;28;20048;-69
2022/12/18 11:47:55;;;;;;;12.13;7.07;;;-1.50;99.90;;;;;;5061228;28;20512;-70
2022/12/18 11:50:26;;;;;;;14.40;6.53;;;-1.40;99.90;;;;;;5054035;28;20090;-70
2022/12/18 11:52:51;;;;;;;9.85;6.90;;;-1.40;99.90;;;;;;5071733;28;20041;-69
2022/12/18 11:55:28;;;;;;;11.45;7.22;;;-1.30;99.90;;;;;;5054045;28;20051;-70
2022/12/18 11:58:15;;;;;;;13.07;7.07;;;-1.30;99.90;;;;;;5065989;28;20651;-70
2022/12/18 12:00:56;;;;;;;10.90;5.90;;;-1.20;99.90;;;;;;5061306;28;20075;-69
2022/12/18 12:03:49;;;;;;;11.80;6.55;;;-1.20;99.90;;;;;;5064240;28;20024;-74
2022/12/18 12:06:33;;;;;;;11.07;5.47;;;-1.10;99.90;;;;;;5071897;28;20048;-69
2022/12/18 12:09:26;;;;;;;8.95;5.93;;;-1.10;99.90;;;;;;5071765;28;20033;-70
2022/12/18 12:12:28;;;;;;;13.07;6.47;;;-1.10;99.90;;;;;;5052354;28;20044;-70
2022/12/18 12:14:56;;;;;;;8.25;6.20;;;-1.10;99.90;;;;;;5051287;28;20073;-70
2022/12/18 12:18:01;;;;;;;7.57;5.25;;;-1.00;99.90;;;;;;5051908;28;20068;-70
2022/12/18 12:20:46;;;;;;;12.70;6.10;;;-1.00;99.90;;;;;;5033960;28;20060;-69
2022/12/18 12:24:05;;;;;;;9.73;5.65;;;-0.90;99.90;;;;;;5051530;28;20041;-70
2022/12/18 12:26:45;;;;;;;9.77;6.72;;;-0.90;99.90;;;;;;4980315;28;20134;-69
2022/12/18 12:29:31;;;;;;;9.18;5.35;;;-1.00;99.90;;;;;;5052053;28;20041;-70
2022/12/18 12:32:20;;;;;;;9.38;5.30;;;-0.90;99.90;;;;;;5033808;28;20056;-69
2022/12/18 12:35:14;;;;;;;14.07;6.47;;;-0.90;99.90;;;;;;5051869;28;20048;-70
2022/12/18 12:38:09;;;;;;;10.82;5.25;;;-0.90;99.90;;;;;;5051722;28;20037;-70
2022/12/18 12:40:41;;;;;;;10.45;5.72;;;-0.90;99.90;;;;;;5051606;28;20049;-70
2022/12/18 12:43:28;;;;;;;10.10;5.70;;;-0.90;99.90;;;;;;5051390;28;20048;-70
2022/12/18 12:46:06;;;;;;;10.30;5.60;;;-0.80;99.90;;;;;;5033753;28;20049;-70
2022/12/18 12:48:51;;;;;;;9.57;5.88;;;-0.80;99.90;;;;;;5051564;28;20036;-70
2022/12/18 12:51:23;;;;;;;12.93;6.60;;;-0.70;99.90;;;;;;5051759;28;20048;-69